createdAt,value
2022-10-08T00:01:27.388Z,101908.47
2022-10-08T00:06:22.487Z,101982.88
2022-10-08T00:11:18.372Z,101966.75
2022-10-08T00:16:15.392Z,101953.69
2022-10-08T00:21:14.571Z,101969.16
2022-10-08T00:26:08.009Z,101919.00
2022-10-08T00:31:07.616Z,101971.94
2022-10-08T00:36:02.399Z,101969.81
2022-10-08T00:40:57.200Z,101914.38
2022-10-08T00:45:50.522Z,101852.72
2022-10-08T00:50:43.968Z,101961.63
2022-10-08T00:55:43.327Z,101920.34
2022-10-08T01:00:38.699Z,101918.13
2022-10-08T01:05:45.564Z,101894.69
2022-10-08T01:10:50.134Z,101876.66
2022-10-08T01:15:52.156Z,101895.03
2022-10-08T01:20:52.882Z,101928.91
2022-10-08T01:25:53.947Z,101925.88
2022-10-08T01:30:52.293Z,101892.97
2022-10-08T01:35:54.247Z,101913.06
2022-10-08T01:40:49.659Z,101908.34
2022-10-08T01:45:46.924Z,101917.84
2022-10-08T01:50:53.701Z,101908.38
2022-10-08T01:55:50.442Z,101918.25
2022-10-08T02:00:43.896Z,101888.91
2022-10-08T02:05:41.208Z,101883.06
2022-10-08T02:10:35.893Z,101933.47
2022-10-08T02:15:38.597Z,101905.03
2022-10-08T02:20:36.422Z,101915.84
2022-10-08T02:25:34.825Z,101831.16
2022-10-08T02:30:35.608Z,101918.41
2022-10-08T02:35:34.853Z,101868.78
2022-10-08T02:40:31.736Z,101807.25
2022-10-08T02:45:29.040Z,101844.03
2022-10-08T02:50:27.650Z,101933.47
2022-10-08T02:55:29.151Z,101753.75
2022-10-08T03:00:22.673Z,101863.09
2022-10-08T03:05:20.510Z,101844.84
2022-10-08T03:10:15.935Z,101897.13
2022-10-08T03:15:11.775Z,101865.09
2022-10-08T03:20:09.564Z,101937.84
2022-10-08T03:25:02.829Z,101902.47
2022-10-08T03:29:58.098Z,101906.75
2022-10-08T03:34:51.381Z,101909.22
2022-10-08T03:39:44.639Z,101932.50
2022-10-08T03:44:37.777Z,101927.34
2022-10-08T03:49:32.386Z,101923.00
2022-10-08T03:54:26.122Z,101920.47
2022-10-08T03:59:19.424Z,101884.31
2022-10-08T04:04:12.642Z,101856.88
2022-10-08T04:09:07.395Z,101917.44
2022-10-08T04:14:01.772Z,101833.91
2022-10-08T04:18:55.031Z,101709.00
2022-10-08T04:23:50.870Z,101872.72
2022-10-08T04:28:46.302Z,101806.94
2022-10-08T04:33:40.071Z,101906.56
2022-10-08T04:38:33.526Z,101858.38
2022-10-08T04:43:26.758Z,101893.06
2022-10-08T04:48:21.453Z,101786.75
2022-10-08T04:53:14.724Z,101873.97
2022-10-08T04:58:07.849Z,101792.88
2022-10-08T05:03:01.163Z,101888.00
2022-10-08T05:07:56.959Z,101918.78
2022-10-08T05:12:50.289Z,101919.91
2022-10-08T05:17:46.218Z,101894.44
2022-10-08T05:22:41.886Z,101882.19
2022-10-08T05:27:37.089Z,101931.31
2022-10-08T05:32:30.449Z,101903.00
2022-10-08T05:37:23.970Z,101933.16
2022-10-08T05:42:17.237Z,101884.38
2022-10-08T05:47:11.906Z,101897.13
2022-10-08T05:52:05.398Z,101882.91
2022-10-08T05:56:59.034Z,101939.06
2022-10-08T06:01:52.968Z,101922.50
2022-10-08T06:06:48.332Z,101836.16
2022-10-08T06:11:42.616Z,101936.94
2022-10-08T06:16:36.560Z,101866.06
2022-10-08T06:21:31.320Z,101892.13
2022-10-08T06:26:32.918Z,101949.81
2022-10-08T06:31:33.983Z,101948.56
2022-10-08T06:36:29.517Z,101949.19
2022-10-08T06:41:25.714Z,101908.16
2022-10-08T06:46:20.065Z,101913.56
2022-10-08T06:51:15.800Z,101935.66
2022-10-08T06:56:14.596Z,101948.06
2022-10-08T07:01:11.438Z,101952.03
2022-10-08T07:06:07.734Z,101939.97
2022-10-08T07:11:06.158Z,101889.59
2022-10-08T07:16:03.495Z,101939.19
2022-10-08T07:21:01.322Z,101936.69
2022-10-08T07:25:59.477Z,101916.09
2022-10-08T07:30:52.585Z,101924.34
2022-10-08T07:35:45.693Z,101940.06
2022-10-08T07:40:40.260Z,101929.41
2022-10-08T07:45:33.498Z,101927.16
2022-10-08T07:50:26.777Z,101917.75
2022-10-08T07:55:22.515Z,101908.34
2022-10-08T08:00:17.423Z,101887.25
2022-10-08T08:05:10.983Z,101871.50
2022-10-08T08:10:04.851Z,101901.69
2022-10-08T08:14:57.953Z,101908.31
2022-10-08T08:19:52.489Z,101879.78
2022-10-08T08:24:47.387Z,101892.13
2022-10-08T08:29:41.577Z,101879.03
2022-10-08T08:34:35.042Z,101888.56
2022-10-08T08:39:31.876Z,101862.84
2022-10-08T08:44:26.812Z,101858.94
2022-10-08T08:49:29.319Z,101861.47
2022-10-08T08:54:23.377Z,101852.81
2022-10-08T08:59:27.466Z,101802.44
2022-10-08T09:04:25.874Z,101786.88
2022-10-08T09:09:29.945Z,101788.06
2022-10-08T09:14:38.156Z,101836.25
2022-10-08T09:19:32.439Z,101839.50
2022-10-08T09:24:26.058Z,101796.94
2022-10-08T09:29:34.679Z,101803.09
2022-10-08T09:34:30.514Z,101793.03
2022-10-08T09:39:26.099Z,101819.66
2022-10-08T09:44:21.978Z,101797.88
2022-10-08T09:49:39.919Z,101803.19
2022-10-08T09:54:37.910Z,101798.31
2022-10-08T09:59:37.699Z,101796.28
2022-10-08T10:04:35.727Z,101794.63
2022-10-08T10:09:41.714Z,101773.00
2022-10-08T10:14:43.886Z,101764.28
2022-10-08T10:19:43.458Z,101756.66
2022-10-08T10:24:54.630Z,101723.44
2022-10-08T10:29:58.823Z,101750.88
2022-10-08T10:35:04.785Z,101747.53
2022-10-08T10:40:15.177Z,101700.50
2022-10-08T10:45:19.689Z,101714.84
2022-10-08T10:50:17.679Z,101717.72
2022-10-08T10:55:22.057Z,101682.31
2022-10-08T11:00:21.637Z,101653.38
2022-10-08T11:05:21.888Z,101657.84
2022-10-08T11:10:33.331Z,101684.09
2022-10-08T11:15:34.939Z,101672.72
2022-10-08T11:20:41.602Z,101655.34
2022-10-08T11:26:09.898Z,101658.00
2022-10-08T11:31:05.083Z,101650.09
2022-10-08T11:36:13.293Z,101640.38
2022-10-08T11:41:16.258Z,101591.69
2022-10-08T11:46:28.748Z,101613.84
2022-10-08T11:51:40.109Z,101576.78
2022-10-08T11:56:37.002Z,101585.75
2022-10-08T12:01:30.325Z,101601.69
2022-10-08T12:06:27.466Z,101603.88
2022-10-08T12:12:00.085Z,101597.66
2022-10-08T12:17:18.616Z,101570.50
2022-10-08T12:22:50.567Z,101589.16
2022-10-08T12:27:43.980Z,101537.53
2022-10-08T12:32:57.624Z,101568.03
2022-10-08T12:38:13.678Z,101472.00
2022-10-08T12:43:18.659Z,101518.06
2022-10-08T12:48:19.643Z,101543.47
2022-10-08T12:53:16.892Z,101549.38
2022-10-08T12:58:17.964Z,101544.34
2022-10-08T13:03:18.303Z,101547.31
2022-10-08T13:08:37.197Z,101515.31
2022-10-08T13:13:45.053Z,101532.94
2022-10-08T13:18:42.207Z,101532.75
2022-10-08T13:23:37.801Z,101519.22
2022-10-08T13:28:59.187Z,101505.41
2022-10-08T13:33:45.504Z,101525.38
2022-10-08T13:38:38.658Z,101491.59
2022-10-08T13:43:32.545Z,101526.84
2022-10-08T13:48:26.565Z,101480.97
2022-10-08T13:53:24.086Z,101460.31
2022-10-08T13:58:20.336Z,101464.88
2022-10-08T14:03:14.549Z,101480.97
2022-10-08T14:08:14.173Z,101415.84
2022-10-08T14:13:08.479Z,101496.47
2022-10-08T14:18:01.662Z,101486.34
2022-10-08T14:22:54.899Z,101492.63
2022-10-08T14:27:48.264Z,101444.03
2022-10-08T14:32:43.233Z,101454.44
2022-10-08T14:37:36.810Z,101440.56
2022-10-08T14:42:29.901Z,101475.56
2022-10-08T14:47:23.154Z,101462.06
2022-10-08T14:52:44.375Z,101482.75
2022-10-08T14:58:24.723Z,101373.56
2022-10-08T15:03:21.427Z,101347.41
2022-10-08T15:08:38.416Z,101446.22
2022-10-08T15:13:38.137Z,101249.84
2022-10-08T15:18:32.802Z,101296.78
2022-10-08T15:23:31.911Z,101412.84
2022-10-08T15:28:26.824Z,101428.31
2022-10-08T16:01:30.549Z,101434.81
2022-10-08T16:07:56.698Z,101486.66
2022-10-08T16:23:59.749Z,101290.09
2022-10-08T16:35:41.031Z,101493.06
2022-10-08T16:40:34.327Z,101477.66
2022-10-08T17:00:14.375Z,101392.84
2022-10-08T17:05:56.967Z,101454.03
2022-10-08T17:26:04.601Z,101471.38
2022-10-08T17:32:20.881Z,101323.34
2022-10-08T17:38:10.034Z,101493.84
2022-10-08T17:43:40.252Z,101543.41
2022-10-08T17:48:35.231Z,101358.44
2022-10-08T17:53:36.371Z,101359.00
2022-10-08T17:58:30.280Z,101374.97
2022-10-08T18:03:26.499Z,101441.63
2022-10-08T18:08:22.804Z,101433.47
2022-10-08T18:13:19.725Z,101484.25
2022-10-08T18:23:29.745Z,101419.31
2022-10-08T18:28:26.175Z,101486.06
2022-10-08T18:33:25.015Z,101482.28
2022-10-08T18:38:19.621Z,101564.25
2022-10-08T18:43:17.359Z,101485.47
2022-10-08T18:48:42.233Z,101289.13
2022-10-08T18:54:13.977Z,101456.88
2022-10-08T18:59:11.958Z,101431.94
2022-10-08T19:04:10.871Z,101375.09
2022-10-08T19:09:05.674Z,101562.19
2022-10-08T19:13:59.060Z,101545.03
2022-10-08T19:18:59.480Z,101562.22
2022-10-08T19:23:53.370Z,101564.44
2022-10-08T19:28:48.586Z,101565.00
2022-10-08T19:33:44.574Z,101569.72
2022-10-08T19:38:44.201Z,101514.19
2022-10-08T19:43:37.512Z,101363.78
2022-10-08T19:48:30.887Z,101546.34
2022-10-08T19:53:24.268Z,101382.38
2022-10-08T19:58:21.312Z,101327.22
2022-10-08T20:03:14.785Z,101347.50
2022-10-08T20:08:08.180Z,101454.63
2022-10-08T20:13:03.536Z,101575.06
2022-10-08T20:18:00.035Z,101579.03
2022-10-08T20:22:53.326Z,101392.00
2022-10-08T20:27:49.573Z,101576.63
2022-10-08T20:32:45.450Z,101512.97
2022-10-08T20:37:40.500Z,101585.50
2022-10-08T20:42:34.027Z,101561.59
2022-10-08T20:47:29.942Z,101590.94
2022-10-08T20:52:25.707Z,101579.09
2022-10-08T20:57:23.470Z,101514.78
2022-10-08T21:02:19.780Z,101478.09
2022-10-08T21:07:13.290Z,101365.50
2022-10-08T21:12:09.409Z,101584.03
2022-10-08T21:17:04.033Z,101557.09
2022-10-08T21:21:57.584Z,101472.78
2022-10-08T21:26:50.854Z,101516.47
2022-10-08T21:31:44.487Z,101510.91
2022-10-08T21:36:43.045Z,101522.53
2022-10-08T21:41:37.914Z,101499.34
2022-10-08T21:46:33.027Z,101536.22
2022-10-08T21:51:26.769Z,101502.94
2022-10-08T21:56:23.925Z,101473.38
2022-10-08T22:01:22.893Z,101533.44
2022-10-08T22:06:16.409Z,101421.19
2022-10-08T22:11:09.597Z,101483.16
2022-10-08T22:16:05.789Z,101473.75
2022-10-08T22:21:02.390Z,101515.06
2022-10-08T22:25:57.206Z,101484.31
2022-10-08T22:30:50.837Z,101514.63
2022-10-08T22:35:45.776Z,101449.81
2022-10-08T22:40:40.183Z,101355.88
2022-10-08T22:45:36.935Z,101467.53
2022-10-08T22:50:30.173Z,101469.69
2022-10-08T22:55:24.826Z,101491.50
2022-10-08T23:00:18.170Z,101491.75
2022-10-08T23:05:11.348Z,101411.34
2022-10-08T23:10:04.808Z,101471.28
2022-10-08T23:14:59.799Z,101413.66
2022-10-08T23:19:53.182Z,101417.94
2022-10-08T23:24:46.442Z,101406.84
2022-10-08T23:29:39.730Z,101423.69
2022-10-08T23:34:34.263Z,101507.16
2022-10-08T23:39:27.501Z,101505.31
2022-10-08T23:44:20.778Z,101496.72
2022-10-08T23:49:13.883Z,101494.09
2022-10-08T23:54:08.594Z,101443.84
2022-10-08T23:59:01.945Z,101384.16
